Terminal Aerodrome Forecast
Issued by NWS

Home | Current Version | Previous Version | Text Only | Print | Product List | Glossary On
Versions: 1 2 3 4 5 6 7 8 9 10 11 12 13 14 15 16
657
FTAK31 PAJN 222322
TAFAGY
TAF
PAGY 222322Z 2300/2324 06018G24KT P6SM -SHSN OVC040
     FM230500 17009G16KT 3SM -SHSN BR SCT015 OVC030
     FM231000 18012G22KT P6SM VCSH SCT020 OVC040
     FM231400 05010KT P6SM OVC040
     FM232100 04014G21KT P6SM BKN060
      AMD LTD TO CLD VIS AND WIND=

USA.gov is the U.S. government's official web portal to all federal, state and local government web resources and services.